createdAt,value
2018-05-12T00:00:41.440Z,99.60
2018-05-12T00:03:39.192Z,99.80
2018-05-12T00:06:37.015Z,99.90
2018-05-12T00:09:34.168Z,99.90
2018-05-12T00:12:32.075Z,99.90
2018-05-12T00:15:30.162Z,99.90
2018-05-12T00:18:28.942Z,99.90
2018-05-12T00:21:26.297Z,99.90
2018-05-12T00:24:24.254Z,99.90
2018-05-12T00:27:22.284Z,99.90
2018-05-12T00:30:20.236Z,99.90
2018-05-12T00:33:19.539Z,99.90
2018-05-12T00:36:18.719Z,99.90
2018-05-12T00:39:16.455Z,99.90
2018-05-12T00:42:14.001Z,99.90
2018-05-12T00:45:12.093Z,99.90
2018-05-12T00:48:09.372Z,99.90
2018-05-12T00:51:07.649Z,99.90
2018-05-12T00:54:04.778Z,99.90
2018-05-12T00:57:02.827Z,99.90
2018-05-12T01:00:00.716Z,99.90
2018-05-12T01:02:58.314Z,99.90
2018-05-12T01:05:56.413Z,99.90
2018-05-12T01:08:53.667Z,99.90
2018-05-12T01:11:51.677Z,99.90
2018-05-12T01:14:49.843Z,99.90
2018-05-12T01:17:47.001Z,99.90
2018-05-12T01:20:44.264Z,99.90
2018-05-12T01:23:42.188Z,99.90
2018-05-12T01:26:40.467Z,99.90
2018-05-12T01:29:37.600Z,99.90
2018-05-12T01:32:35.587Z,99.90
2018-05-12T01:35:33.741Z,99.90
2018-05-12T01:38:31.607Z,99.90
2018-05-12T01:41:28.656Z,99.90
2018-05-12T01:44:27.051Z,99.90
2018-05-12T01:47:24.957Z,99.90
2018-05-12T01:50:21.963Z,99.90
2018-05-12T01:53:19.045Z,99.90
2018-05-12T01:56:17.039Z,99.90
2018-05-12T01:59:15.013Z,99.90
2018-05-12T02:02:12.928Z,99.90
2018-05-12T02:05:11.012Z,99.90
2018-05-12T02:08:08.012Z,99.90
2018-05-12T02:11:05.961Z,99.90
2018-05-12T02:14:03.857Z,99.90
2018-05-12T02:17:01.919Z,99.90
2018-05-12T02:19:59.941Z,99.90
2018-05-12T02:22:57.415Z,99.90
2018-05-12T02:25:55.181Z,99.90
2018-05-12T02:28:53.112Z,99.90
2018-05-12T02:31:50.981Z,99.90
2018-05-12T02:34:48.806Z,99.90
2018-05-12T02:37:46.641Z,99.90
2018-05-12T02:40:44.611Z,99.90
2018-05-12T02:43:43.420Z,99.90
2018-05-12T02:46:42.836Z,99.90
2018-05-12T02:49:40.572Z,99.90
2018-05-12T02:52:39.443Z,99.90
2018-05-12T02:55:37.327Z,99.90
2018-05-12T02:58:34.326Z,99.90
2018-05-12T03:01:31.592Z,99.90
2018-05-12T03:04:28.632Z,99.90
2018-05-12T03:07:25.713Z,99.90
2018-05-12T03:10:23.632Z,99.90
2018-05-12T03:13:23.731Z,99.90
2018-05-12T03:16:20.812Z,99.90
2018-05-12T03:19:18.807Z,99.90
2018-05-12T03:22:15.951Z,99.90
2018-05-12T03:25:13.040Z,99.90
2018-05-12T03:28:12.030Z,99.90
2018-05-12T03:31:09.060Z,99.90
2018-05-12T03:34:06.174Z,99.90
2018-05-12T03:37:04.035Z,99.90
2018-05-12T03:40:02.006Z,99.90
2018-05-12T03:42:59.197Z,99.90
2018-05-12T03:45:57.100Z,99.90
2018-05-12T03:48:54.270Z,99.90
2018-05-12T03:51:52.335Z,99.90
2018-05-12T03:54:49.428Z,99.90
2018-05-12T03:57:46.536Z,99.90
2018-05-12T04:00:44.356Z,99.90
2018-05-12T04:03:42.278Z,99.90
2018-05-12T04:06:51.479Z,99.90
2018-05-12T04:10:01.350Z,99.90
2018-05-12T04:16:11.073Z,99.90
2018-05-12T04:19:08.850Z,99.90
2018-05-12T04:22:06.732Z,99.90
2018-05-12T04:25:04.666Z,99.90
2018-05-12T04:28:02.505Z,99.90
2018-05-12T04:31:00.203Z,99.90
2018-05-12T04:33:57.342Z,99.90
2018-05-12T04:36:56.006Z,99.90
2018-05-12T04:39:54.046Z,99.20
2018-05-12T04:42:52.025Z,99.20
2018-05-12T04:45:49.914Z,99.50
2018-05-12T04:48:47.645Z,99.50
2018-05-12T04:51:45.946Z,99.30
2018-05-12T04:54:43.736Z,99.30
2018-05-12T04:57:42.598Z,99.60
2018-05-12T05:00:39.718Z,99.50
2018-05-12T05:03:37.490Z,99.40
2018-05-12T05:06:34.576Z,99.40
2018-05-12T05:09:32.527Z,99.20
2018-05-12T05:12:30.428Z,99.00
2018-05-12T05:15:27.452Z,99.10
2018-05-12T05:18:24.610Z,99.20
2018-05-12T05:21:21.712Z,99.00
2018-05-12T06:24:35.933Z,96.50
2018-05-12T06:27:33.116Z,96.20
2018-05-12T06:30:30.098Z,96.10
2018-05-12T06:33:28.009Z,95.40
2018-05-12T06:36:26.091Z,95.20
2018-05-12T06:39:25.037Z,95.10
2018-05-12T06:42:22.669Z,94.20
2018-05-12T06:45:20.778Z,89.90
2018-05-12T06:48:17.820Z,89.70
2018-05-12T06:51:16.487Z,85.40
2018-05-12T06:54:15.483Z,81.10
2018-05-12T06:57:13.480Z,79.20
2018-05-12T07:00:10.731Z,79.10
2018-05-12T07:03:08.735Z,77.40
2018-05-12T07:06:07.934Z,75.30
2018-05-12T07:09:05.756Z,75.70
2018-05-12T07:12:02.705Z,73.20
2018-05-12T07:15:00.615Z,70.40
2018-05-12T07:17:57.748Z,70.40
2018-05-12T07:20:54.856Z,71.10
2018-05-12T07:23:52.848Z,72.20
2018-05-12T07:26:51.045Z,69.30
2018-05-12T07:29:48.854Z,69.20
2018-05-12T07:32:46.901Z,64.90
2018-05-12T07:35:43.918Z,65.00
2018-05-12T07:38:40.907Z,63.90
2018-05-12T07:41:38.928Z,61.60
2018-05-12T07:44:36.635Z,58.40
2018-05-12T07:47:34.702Z,58.50
2018-05-12T07:50:32.420Z,59.30
2018-05-12T07:53:30.365Z,60.40
2018-05-12T07:56:28.120Z,59.50
2018-05-12T07:59:25.889Z,58.70
2018-05-12T08:02:23.647Z,59.90
2018-05-12T08:05:21.617Z,59.70
2018-05-12T08:08:19.876Z,59.50
2018-05-12T08:11:18.629Z,59.50
2018-05-12T08:14:16.718Z,59.40
2018-05-12T08:17:14.545Z,60.10
2018-05-12T08:20:12.316Z,60.30
2018-05-12T08:23:10.375Z,60.80
2018-05-12T08:26:08.282Z,58.70
2018-05-12T08:29:05.972Z,58.70
2018-05-12T08:32:03.618Z,57.50
2018-05-12T08:35:01.620Z,58.80
2018-05-12T08:37:59.187Z,56.90
2018-05-12T08:40:56.312Z,57.70
2018-05-12T08:43:53.981Z,57.50
2018-05-12T08:46:51.882Z,56.10
2018-05-12T08:49:51.036Z,56.20
2018-05-12T08:52:48.173Z,56.20
2018-05-12T08:55:46.966Z,56.10
2018-05-12T08:58:44.981Z,56.00
2018-05-12T09:01:42.737Z,55.50
2018-05-12T09:04:40.460Z,55.30
2018-05-12T09:07:38.526Z,55.20
2018-05-12T09:10:37.079Z,54.40
2018-05-12T09:13:35.952Z,54.40
2018-05-12T09:16:33.031Z,54.10
2018-05-12T09:19:30.959Z,53.60
2018-05-12T09:22:28.755Z,52.10
2018-05-12T09:25:26.473Z,51.70
2018-05-12T09:28:25.246Z,52.90
2018-05-12T09:31:22.999Z,53.70
2018-05-12T09:34:20.905Z,53.50
2018-05-12T09:37:19.014Z,53.20
2018-05-12T09:40:16.680Z,53.30
2018-05-12T09:43:13.786Z,52.20
2018-05-12T09:46:11.604Z,51.90
2018-05-12T09:49:09.262Z,51.70
2018-05-12T09:52:06.411Z,53.70
2018-05-12T09:55:04.294Z,54.70
2018-05-12T09:58:02.082Z,53.80
2018-05-12T10:00:59.252Z,53.50
2018-05-12T10:03:57.217Z,53.80
2018-05-12T10:06:55.000Z,54.20
2018-05-12T10:09:52.926Z,54.00
2018-05-12T10:12:52.717Z,54.80
2018-05-12T10:15:50.599Z,54.60
2018-05-12T10:18:48.438Z,53.90
2018-05-12T10:21:46.172Z,52.60
2018-05-12T10:24:43.922Z,52.60
2018-05-12T10:27:41.724Z,53.20
2018-05-12T10:30:39.800Z,52.10
2018-05-12T10:33:38.496Z,52.30
2018-05-12T10:36:36.475Z,52.70
2018-05-12T10:39:34.417Z,51.80
2018-05-12T10:42:32.139Z,50.90
2018-05-12T10:45:30.215Z,51.50
2018-05-12T10:48:28.296Z,51.00
2018-05-12T10:51:26.164Z,51.40
2018-05-12T10:54:24.004Z,51.20
2018-05-12T10:57:22.709Z,49.50
2018-05-12T11:00:20.969Z,43.40
2018-05-12T11:03:18.868Z,43.40
2018-05-12T11:06:16.076Z,41.70
2018-05-12T11:09:13.121Z,41.80
2018-05-12T11:12:11.444Z,41.40
2018-05-12T11:15:09.491Z,41.40
2018-05-12T11:18:07.521Z,39.80
2018-05-12T11:21:05.146Z,39.20
2018-05-12T11:24:02.871Z,38.70
2018-05-12T11:27:00.732Z,38.30
2018-05-12T11:29:58.701Z,36.70
2018-05-12T11:32:56.372Z,36.60
2018-05-12T11:35:54.151Z,35.70
2018-05-12T11:38:52.904Z,36.60
2018-05-12T11:41:50.689Z,36.10
2018-05-12T11:44:48.617Z,35.20
2018-05-12T11:47:45.691Z,35.10
2018-05-12T11:50:43.559Z,34.70
2018-05-12T11:53:41.384Z,34.30
2018-05-12T11:56:39.239Z,34.50
2018-05-12T11:59:37.134Z,34.40
2018-05-12T12:02:35.124Z,34.40
2018-05-12T12:05:32.840Z,34.40
2018-05-12T12:08:30.656Z,34.30
2018-05-12T12:11:29.202Z,34.50
2018-05-12T12:14:27.220Z,34.80
2018-05-12T12:17:24.899Z,34.70
2018-05-12T12:20:22.080Z,33.80
2018-05-12T12:23:20.958Z,34.40
2018-05-12T12:26:19.020Z,33.80
2018-05-12T12:29:16.834Z,34.70
2018-05-12T12:32:14.947Z,34.10
2018-05-12T12:35:12.818Z,34.50
2018-05-12T12:38:10.801Z,34.40
2018-05-12T12:41:08.599Z,33.50
2018-05-12T12:44:06.346Z,33.80
2018-05-12T12:47:04.103Z,31.60
2018-05-12T12:50:03.038Z,31.70
2018-05-12T12:53:01.025Z,31.40
2018-05-12T12:55:58.823Z,31.60
2018-05-12T12:58:56.704Z,31.50
2018-05-12T13:01:54.472Z,31.60
2018-05-12T13:04:52.648Z,32.50
2018-05-12T13:07:50.322Z,32.40
2018-05-12T13:10:47.944Z,32.80
2018-05-12T13:13:46.725Z,32.20
2018-05-12T13:16:44.598Z,32.20
2018-05-12T13:19:42.623Z,31.60
2018-05-12T13:22:40.796Z,31.80
2018-05-12T13:25:38.308Z,32.30
2018-05-12T13:28:36.283Z,32.70
2018-05-12T13:31:34.271Z,32.60
2018-05-12T13:34:32.205Z,32.90
2018-05-12T13:37:29.378Z,32.90
2018-05-12T13:40:27.479Z,33.70
2018-05-12T13:43:25.336Z,33.70
2018-05-12T13:46:23.272Z,33.70
2018-05-12T13:49:21.122Z,32.80
2018-05-12T13:52:18.944Z,32.80
2018-05-12T13:55:16.656Z,33.70
2018-05-12T13:58:14.631Z,33.70
2018-05-12T14:01:11.817Z,33.60
2018-05-12T14:04:09.016Z,34.20
2018-05-12T14:07:06.177Z,34.30
2018-05-12T14:10:04.527Z,33.60
2018-05-12T14:13:02.484Z,34.50
2018-05-12T14:16:00.426Z,33.80
2018-05-12T14:18:58.164Z,34.40
2018-05-12T14:21:55.971Z,34.60
2018-05-12T14:24:53.773Z,35.30
2018-05-12T14:27:51.588Z,34.60
2018-05-12T14:30:49.554Z,34.50
2018-05-12T14:33:48.499Z,35.90
2018-05-12T14:36:45.540Z,35.90
2018-05-12T14:39:43.444Z,35.80
2018-05-12T14:42:41.209Z,35.50
2018-05-12T14:45:38.902Z,35.50
2018-05-12T14:48:36.737Z,35.90
2018-05-12T14:51:34.504Z,35.90
2018-05-12T14:54:32.401Z,36.30
2018-05-12T14:57:30.179Z,35.90
2018-05-12T15:00:28.049Z,37.00
2018-05-12T15:03:26.900Z,36.50
2018-05-12T15:06:24.934Z,36.40
2018-05-12T15:09:22.194Z,37.20
2018-05-12T15:12:20.153Z,37.20
2018-05-12T15:15:17.884Z,37.80
2018-05-12T15:18:15.864Z,38.00
2018-05-12T15:21:13.817Z,38.60
2018-05-12T15:24:11.653Z,38.70
2018-05-12T15:27:09.560Z,39.80
2018-05-12T15:30:07.183Z,40.30
2018-05-12T15:33:04.974Z,40.50
2018-05-12T15:36:03.715Z,40.80
2018-05-12T15:39:01.491Z,41.20
2018-05-12T15:41:59.453Z,41.10
2018-05-12T15:44:58.093Z,41.00
2018-05-12T15:47:55.957Z,41.20
2018-05-12T15:50:53.880Z,41.90
2018-05-12T15:53:51.724Z,41.90
2018-05-12T15:56:49.379Z,42.20
2018-05-12T15:59:47.154Z,42.40
2018-05-12T16:02:45.126Z,42.20
2018-05-12T16:05:42.990Z,43.10
2018-05-12T16:08:40.125Z,43.20
2018-05-12T16:11:37.908Z,43.30
2018-05-12T16:14:35.778Z,44.00
2018-05-12T16:17:32.890Z,46.20
2018-05-12T16:20:33.022Z,47.90
2018-05-12T16:23:30.715Z,48.00
2018-05-12T16:26:28.453Z,47.60
2018-05-12T16:29:26.367Z,48.40
2018-05-12T16:32:23.448Z,48.50
2018-05-12T16:35:21.576Z,49.20
2018-05-12T16:38:19.514Z,49.90
2018-05-12T16:41:16.624Z,50.60
2018-05-12T16:44:14.460Z,51.20
2018-05-12T16:47:12.382Z,51.30
2018-05-12T16:50:10.539Z,52.10
2018-05-12T16:53:08.443Z,52.90
2018-05-12T16:56:06.318Z,53.70
2018-05-12T16:59:04.255Z,54.50
2018-05-12T17:02:01.921Z,55.20
2018-05-12T17:04:59.791Z,56.20
2018-05-12T17:07:57.499Z,57.10
2018-05-12T17:10:55.278Z,57.90
2018-05-12T17:13:52.963Z,58.70
2018-05-12T17:16:50.724Z,59.30
2018-05-12T17:19:50.235Z,60.50
2018-05-12T17:22:47.940Z,60.50
2018-05-12T17:25:45.581Z,60.80
2018-05-12T17:28:44.222Z,61.60
2018-05-12T17:31:41.963Z,62.50
2018-05-12T17:34:39.921Z,63.40
2018-05-12T17:37:37.756Z,64.50
2018-05-12T17:40:35.505Z,65.10
2018-05-12T17:43:33.386Z,66.50
2018-05-12T17:46:31.189Z,66.80
2018-05-12T17:49:29.238Z,68.20
2018-05-12T17:52:27.178Z,68.10
2018-05-12T17:55:24.946Z,69.10
2018-05-12T17:58:22.866Z,70.10
2018-05-12T18:01:20.921Z,71.20
2018-05-12T18:04:18.694Z,71.20
2018-05-12T18:07:17.306Z,72.40
2018-05-12T18:10:15.156Z,72.40
2018-05-12T18:13:13.074Z,73.30
2018-05-12T18:16:11.054Z,74.80
2018-05-12T18:19:09.680Z,74.70
2018-05-12T18:22:06.879Z,75.20
2018-05-12T18:25:04.907Z,76.00
2018-05-12T18:28:03.593Z,77.80
2018-05-12T18:31:01.469Z,78.50
2018-05-12T18:33:59.036Z,78.20
2018-05-12T18:36:56.968Z,79.40
2018-05-12T18:39:54.227Z,79.30
2018-05-12T18:42:52.125Z,80.40
2018-05-12T18:45:49.812Z,80.20
2018-05-12T18:48:49.540Z,81.50
2018-05-12T18:51:47.677Z,82.50
2018-05-12T18:54:46.505Z,83.40
2018-05-12T18:57:44.552Z,83.40
2018-05-12T19:00:42.522Z,83.50
2018-05-12T19:03:41.331Z,84.20
2018-05-12T19:06:39.361Z,85.20
2018-05-12T19:09:37.237Z,85.10
2018-05-12T19:12:35.895Z,85.10
2018-05-12T19:15:33.880Z,86.00
2018-05-12T19:18:32.076Z,86.00
2018-05-12T19:21:29.605Z,86.00
2018-05-12T19:24:26.710Z,86.30
2018-05-12T19:27:24.543Z,85.90
2018-05-12T19:30:22.349Z,86.30
2018-05-12T19:33:20.073Z,86.50
2018-05-12T19:36:19.142Z,86.80
2018-05-12T19:39:17.044Z,86.80
2018-05-12T19:42:14.948Z,86.80
2018-05-12T19:45:12.836Z,87.20
2018-05-12T19:48:10.612Z,88.60
2018-05-12T19:51:10.652Z,88.70
2018-05-12T19:54:09.603Z,88.90
2018-05-12T19:57:07.348Z,89.50
2018-05-12T20:00:05.349Z,90.10
2018-05-12T20:03:03.236Z,90.10
2018-05-12T20:06:01.049Z,90.20
2018-05-12T20:08:58.853Z,90.40
2018-05-12T20:11:56.720Z,90.60
2018-05-12T20:14:54.755Z,91.10
2018-05-12T20:17:52.628Z,91.20
2018-05-12T20:20:50.660Z,91.40
2018-05-12T20:23:48.501Z,91.40
2018-05-12T20:26:46.312Z,91.60
2018-05-12T20:29:44.748Z,91.90
2018-05-12T20:32:42.125Z,91.90
2018-05-12T20:35:39.996Z,92.00
2018-05-12T20:38:37.813Z,92.20
2018-05-12T20:41:35.715Z,92.30
2018-05-12T20:44:33.541Z,93.00
2018-05-12T20:47:31.666Z,93.20
2018-05-12T20:50:30.383Z,93.10
2018-05-12T20:53:28.398Z,93.60
2018-05-12T20:56:28.211Z,93.50
2018-05-12T20:59:26.025Z,93.50
2018-05-12T21:02:24.026Z,93.60
2018-05-12T21:05:21.769Z,93.70
2018-05-12T21:08:18.999Z,93.80
2018-05-12T21:11:16.813Z,94.00
2018-05-12T21:14:14.756Z,94.10
2018-05-12T21:17:12.655Z,94.20
2018-05-12T21:20:10.338Z,94.40
2018-05-12T21:23:07.477Z,94.50
2018-05-12T21:26:04.604Z,94.70
2018-05-12T21:29:03.563Z,94.90
2018-05-12T21:32:01.660Z,94.70
2018-05-12T21:34:59.646Z,95.10
2018-05-12T21:37:58.651Z,95.10
2018-05-12T21:40:56.451Z,95.00
2018-05-12T21:43:54.461Z,95.20
2018-05-12T21:46:52.188Z,95.20
2018-05-12T21:49:50.055Z,95.30
2018-05-12T21:52:47.784Z,95.10
2018-05-12T21:55:45.652Z,95.20
2018-05-12T21:58:43.434Z,95.10
2018-05-12T22:01:41.556Z,95.30
2018-05-12T22:04:39.588Z,95.30
2018-05-12T22:07:38.307Z,95.40
2018-05-12T22:10:35.661Z,95.40
2018-05-12T22:13:33.489Z,95.50
2018-05-12T22:16:31.248Z,95.50
2018-05-12T22:19:29.328Z,95.50
2018-05-12T22:22:27.277Z,95.50
2018-05-12T22:25:25.401Z,95.50
2018-05-12T22:28:22.549Z,96.10
2018-05-12T22:31:20.376Z,95.60
2018-05-12T22:34:17.457Z,95.80
2018-05-12T22:37:15.413Z,95.90
2018-05-12T22:40:13.192Z,95.90
2018-05-12T22:43:11.354Z,96.00
2018-05-12T22:46:09.023Z,96.00
2018-05-12T22:49:06.713Z,95.90
2018-05-12T22:52:04.877Z,96.10
2018-05-12T22:55:02.547Z,95.70
2018-05-12T22:58:00.341Z,95.70
2018-05-12T23:00:59.261Z,95.60
2018-05-12T23:03:56.520Z,95.70
2018-05-12T23:06:54.579Z,95.80
2018-05-12T23:09:52.515Z,96.00
2018-05-12T23:12:50.578Z,95.90
2018-05-12T23:15:47.649Z,95.90
2018-05-12T23:18:45.986Z,95.90
2018-05-12T23:21:43.361Z,95.90
2018-05-12T23:24:41.471Z,96.00
2018-05-12T23:27:38.577Z,96.20
2018-05-12T23:30:36.491Z,96.20
2018-05-12T23:33:34.363Z,96.20
2018-05-12T23:36:32.276Z,96.10
2018-05-12T23:39:31.308Z,96.10
2018-05-12T23:42:29.084Z,96.10
2018-05-12T23:45:27.033Z,96.10
2018-05-12T23:48:24.885Z,96.40
2018-05-12T23:51:22.785Z,96.40
2018-05-12T23:54:20.418Z,96.10
2018-05-12T23:57:18.201Z,96.10
